createdAt,value
2018-09-28T00:00:41.942Z,82.68
2018-09-28T00:01:41.896Z,83.40
2018-09-28T00:02:41.885Z,83.50
2018-09-28T00:03:41.887Z,84.01
2018-09-28T00:04:41.897Z,83.81
2018-09-28T00:05:41.844Z,83.85
2018-09-28T00:06:41.841Z,84.42
2018-09-28T00:07:41.829Z,84.05
2018-09-28T00:08:41.834Z,84.16
2018-09-28T00:09:41.808Z,83.29
2018-09-28T00:10:41.815Z,82.92
2018-09-28T00:11:41.799Z,82.51
2018-09-28T00:12:41.777Z,82.41
2018-09-28T00:13:41.764Z,80.52
2018-09-28T00:14:51.624Z,83.03
2018-09-28T00:15:50.371Z,82.68
2018-09-28T00:16:41.886Z,80.46
2018-09-28T00:17:50.718Z,82.71
2018-09-28T00:18:41.789Z,82.31
2018-09-28T00:19:50.271Z,81.38
2018-09-28T00:20:50.433Z,82.20
2018-09-28T00:21:41.783Z,82.41
2018-09-28T00:22:41.848Z,82.92
2018-09-28T00:23:41.732Z,83.85
2018-09-28T00:24:41.769Z,82.82
2018-09-28T00:25:41.701Z,82.41
2018-09-28T00:26:41.640Z,83.13
2018-09-28T00:27:41.607Z,85.60
2018-09-28T00:28:41.611Z,84.56
2018-09-28T00:29:41.592Z,80.70
2018-09-28T00:30:41.580Z,82.45
2018-09-28T00:31:41.613Z,85.43
2018-09-28T00:32:41.563Z,85.53
2018-09-28T00:33:41.552Z,85.63
2018-09-28T00:34:41.536Z,85.28
2018-09-28T00:35:41.577Z,85.53
2018-09-28T00:36:41.549Z,85.43
2018-09-28T00:37:41.523Z,85.94
2018-09-28T00:38:41.505Z,85.74
2018-09-28T00:39:41.481Z,85.63
2018-09-28T00:40:41.480Z,85.33
2018-09-28T00:41:41.471Z,85.43
2018-09-28T00:42:41.472Z,85.33
2018-09-28T00:43:41.439Z,85.84
2018-09-28T00:44:41.504Z,85.94
2018-09-28T00:45:41.416Z,85.84
2018-09-28T00:46:41.405Z,85.22
2018-09-28T00:47:41.413Z,84.71
2018-09-28T00:48:41.402Z,85.33
2018-09-28T00:49:41.380Z,85.63
2018-09-28T00:50:41.382Z,85.74
2018-09-28T00:51:41.350Z,85.33
2018-09-28T00:52:41.366Z,84.20
2018-09-28T00:53:41.332Z,84.54
2018-09-28T00:54:41.318Z,84.40
2018-09-28T00:55:41.318Z,83.72
2018-09-28T00:56:41.334Z,84.03
2018-09-28T00:57:41.294Z,83.72
2018-09-28T00:58:41.300Z,83.20
2018-09-28T00:59:41.286Z,84.13
2018-09-28T01:00:41.252Z,83.83
2018-09-28T01:01:41.248Z,85.57
2018-09-28T01:02:41.234Z,85.98
2018-09-28T01:03:41.277Z,85.98
2018-09-28T01:04:41.214Z,84.75
2018-09-28T01:05:41.208Z,85.36
2018-09-28T01:06:41.194Z,85.47
2018-09-28T01:07:41.183Z,85.68
2018-09-28T01:08:41.191Z,84.79
2018-09-28T01:09:41.221Z,84.34
2018-09-28T01:10:41.151Z,85.41
2018-09-28T01:11:41.139Z,86.02
2018-09-28T01:12:41.137Z,84.79
2018-09-28T01:13:41.139Z,84.38
2018-09-28T01:14:41.112Z,85.20
2018-09-28T01:15:41.129Z,86.43
2018-09-28T01:16:41.084Z,86.33
2018-09-28T01:17:41.077Z,87.57
2018-09-28T01:18:41.065Z,86.40
2018-09-28T01:19:41.075Z,86.43
2018-09-28T01:20:41.043Z,86.54
2018-09-28T01:21:41.078Z,88.39
2018-09-28T01:22:41.019Z,89.11
2018-09-28T01:23:41.012Z,89.52
2018-09-28T01:24:41.000Z,89.42
2018-09-28T01:25:40.995Z,88.45
2018-09-28T01:26:40.986Z,88.24
2018-09-28T01:27:41.029Z,86.33
2018-09-28T01:28:40.953Z,87.67
2018-09-28T01:29:40.946Z,88.70
2018-09-28T01:30:40.943Z,87.98
2018-09-28T01:31:40.932Z,87.77
2018-09-28T01:32:40.911Z,87.57
2018-09-28T01:33:40.945Z,87.77
2018-09-28T01:34:40.899Z,88.18
2018-09-28T01:35:40.883Z,87.57
2018-09-28T01:36:40.875Z,87.67
2018-09-28T01:37:40.866Z,88.29
2018-09-28T01:38:40.848Z,87.77
2018-09-28T01:39:40.853Z,87.42
2018-09-28T01:40:40.913Z,86.70
2018-09-28T01:41:40.822Z,86.40
2018-09-28T01:42:40.807Z,85.51
2018-09-28T01:43:40.790Z,85.30
2018-09-28T01:44:40.862Z,86.64
2018-09-28T01:45:40.765Z,85.41
2018-09-28T01:46:40.817Z,86.33
2018-09-28T01:47:40.749Z,86.64
2018-09-28T01:48:40.730Z,86.64
2018-09-28T01:49:40.723Z,86.54
2018-09-28T01:50:40.709Z,87.36
2018-09-28T01:51:40.704Z,87.40
2018-09-28T01:52:40.727Z,86.88
2018-09-28T01:53:40.677Z,87.26
2018-09-28T01:54:40.669Z,86.37
2018-09-28T01:55:40.661Z,86.47
2018-09-28T01:56:40.650Z,86.88
2018-09-28T01:57:40.640Z,87.09
2018-09-28T01:58:40.679Z,85.96
2018-09-28T01:59:40.686Z,87.60
2018-09-28T02:00:40.604Z,87.71
2018-09-28T02:01:40.594Z,87.40
2018-09-28T02:02:40.659Z,88.23
2018-09-28T02:03:40.574Z,87.09
2018-09-28T02:04:40.597Z,86.88
2018-09-28T02:05:40.550Z,85.65
2018-09-28T02:06:40.536Z,87.51
2018-09-28T02:07:40.578Z,87.92
2018-09-28T02:08:40.534Z,87.40
2018-09-28T02:09:40.511Z,87.40
2018-09-28T02:10:40.503Z,87.40
2018-09-28T02:11:40.485Z,87.92
2018-09-28T02:12:40.634Z,88.33
2018-09-28T02:13:40.466Z,86.68
2018-09-28T02:14:40.470Z,85.03
2018-09-28T02:15:40.498Z,85.59
2018-09-28T02:16:40.432Z,86.52
2018-09-28T02:17:40.436Z,87.71
2018-09-28T02:18:40.449Z,86.93
2018-09-28T02:19:40.438Z,86.72
2018-09-28T02:20:40.427Z,86.93
2018-09-28T02:21:40.373Z,88.06
2018-09-28T02:22:40.362Z,87.65
2018-09-28T02:23:40.352Z,87.54
2018-09-28T02:24:40.354Z,87.54
2018-09-28T02:25:40.355Z,87.65
2018-09-28T02:26:40.318Z,87.96
2018-09-28T02:27:40.313Z,88.68
2018-09-28T02:28:40.313Z,88.26
2018-09-28T02:29:40.285Z,86.61
2018-09-28T02:30:40.320Z,87.54
2018-09-28T02:31:40.265Z,88.06
2018-09-28T02:32:40.252Z,88.51
2018-09-28T02:33:40.248Z,89.50
2018-09-28T02:34:40.256Z,87.34
2018-09-28T02:35:40.220Z,88.41
2018-09-28T02:36:40.233Z,87.59
2018-09-28T02:37:40.201Z,87.85
2018-09-28T02:38:40.205Z,87.48
2018-09-28T02:39:40.207Z,88.31
2018-09-28T02:40:40.172Z,87.99
2018-09-28T02:41:40.158Z,89.03
2018-09-28T02:42:40.164Z,88.20
2018-09-28T02:43:40.134Z,89.13
2018-09-28T02:44:40.122Z,88.92
2018-09-28T02:45:40.139Z,89.13
2018-09-28T02:46:40.115Z,88.31
2018-09-28T02:47:40.090Z,88.31
2018-09-28T02:48:40.085Z,89.54
2018-09-28T02:49:40.079Z,89.23
2018-09-28T02:50:40.062Z,89.34
2018-09-28T02:51:40.078Z,88.51
2018-09-28T02:52:40.139Z,88.72
2018-09-28T02:53:40.049Z,88.62
2018-09-28T02:54:40.017Z,88.31
2018-09-28T02:55:40.035Z,88.65
2018-09-28T02:56:40.004Z,88.51
2018-09-28T02:57:39.975Z,88.41
2018-09-28T02:58:39.999Z,87.79
2018-09-28T02:59:39.961Z,86.80
2018-09-28T03:00:39.954Z,86.80
2018-09-28T03:01:39.940Z,86.80
2018-09-28T03:02:39.933Z,88.35
2018-09-28T03:03:39.910Z,90.31
2018-09-28T03:04:39.960Z,90.47
2018-09-28T03:05:39.904Z,90.47
2018-09-28T03:06:39.888Z,90.47
2018-09-28T03:07:39.870Z,90.67
2018-09-28T03:08:39.869Z,90.16
2018-09-28T03:09:39.854Z,89.75
2018-09-28T03:10:39.872Z,89.95
2018-09-28T03:11:39.836Z,89.85
2018-09-28T03:12:39.814Z,88.41
2018-09-28T03:13:39.850Z,90.06
2018-09-28T03:14:39.791Z,89.75
2018-09-28T03:15:39.794Z,90.73
2018-09-28T03:16:39.780Z,90.43
2018-09-28T03:17:39.799Z,90.12
2018-09-28T03:18:39.778Z,90.53
2018-09-28T03:19:39.737Z,90.84
2018-09-28T03:20:39.742Z,91.56
2018-09-28T03:21:39.723Z,91.97
2018-09-28T03:22:39.734Z,91.87
2018-09-28T03:23:39.700Z,92.24
2018-09-28T03:24:39.713Z,92.44
2018-09-28T03:25:39.691Z,93.37
2018-09-28T03:26:39.671Z,93.37
2018-09-28T03:27:39.655Z,92.61
2018-09-28T03:28:39.667Z,91.93
2018-09-28T03:29:39.632Z,91.27
2018-09-28T03:30:39.672Z,91.58
2018-09-28T03:31:39.611Z,91.89
2018-09-28T03:32:39.621Z,92.61
2018-09-28T03:33:39.588Z,93.33
2018-09-28T03:34:39.605Z,91.68
2018-09-28T03:35:39.592Z,91.27
2018-09-28T03:36:39.570Z,91.64
2018-09-28T03:37:39.543Z,91.85
2018-09-28T03:38:39.532Z,91.23
2018-09-28T03:39:39.531Z,91.33
2018-09-28T03:40:39.638Z,92.32
2018-09-28T03:41:39.500Z,92.63
2018-09-28T03:42:39.484Z,92.32
2018-09-28T03:43:39.478Z,92.32
2018-09-28T03:44:39.466Z,91.14
2018-09-28T03:45:39.623Z,91.76
2018-09-28T03:46:39.434Z,91.55
2018-09-28T03:47:40.220Z,90.73
2018-09-28T03:48:39.425Z,91.14
2018-09-28T03:49:39.407Z,91.14
2018-09-28T03:50:39.406Z,89.91
2018-09-28T03:51:39.407Z,90.73
2018-09-28T03:52:39.404Z,90.12
2018-09-28T03:53:39.386Z,90.42
2018-09-28T03:54:39.354Z,89.97
2018-09-28T03:55:39.351Z,89.29
2018-09-28T03:56:39.334Z,90.18
2018-09-28T03:57:39.346Z,90.38
2018-09-28T03:58:39.310Z,90.28
2018-09-28T03:59:39.324Z,89.97
2018-09-28T04:00:39.290Z,89.56
2018-09-28T04:01:39.283Z,89.66
2018-09-28T04:02:39.289Z,89.87
2018-09-28T04:03:39.280Z,89.21
2018-09-28T04:04:39.291Z,89.31
2018-09-28T04:05:39.232Z,89.42
2018-09-28T04:06:39.239Z,90.03
2018-09-28T04:07:39.213Z,90.85
2018-09-28T04:08:39.237Z,90.50
2018-09-28T04:09:39.223Z,90.61
2018-09-28T04:10:39.188Z,90.20
2018-09-28T04:11:39.165Z,89.48
2018-09-28T04:12:39.189Z,89.89
2018-09-28T04:13:39.418Z,89.89
2018-09-28T04:14:39.179Z,89.27
2018-09-28T04:15:39.131Z,89.07
2018-09-28T04:16:39.110Z,88.96
2018-09-28T04:17:39.124Z,88.92
2018-09-28T04:18:39.108Z,87.38
2018-09-28T04:19:39.173Z,87.79
2018-09-28T04:20:39.064Z,89.84
2018-09-28T04:21:39.069Z,89.54
2018-09-28T04:22:39.087Z,89.43
2018-09-28T04:23:39.673Z,89.23
2018-09-28T04:24:39.062Z,88.92
2018-09-28T04:25:39.037Z,88.82
2018-09-28T04:26:38.997Z,87.79
2018-09-28T04:27:39.013Z,87.70
2018-09-28T04:28:38.984Z,87.45
2018-09-28T04:29:39.055Z,87.65
2018-09-28T04:30:38.976Z,88.06
2018-09-28T04:31:38.956Z,88.27
2018-09-28T04:32:39.042Z,88.78
2018-09-28T04:33:38.932Z,89.04
2018-09-28T04:34:38.926Z,88.88
2018-09-28T04:35:39.303Z,88.98
2018-09-28T04:36:38.926Z,87.24
2018-09-28T04:37:38.896Z,87.55
2018-09-28T04:38:38.874Z,87.30
2018-09-28T04:39:38.898Z,87.41
2018-09-28T04:40:38.868Z,87.71
2018-09-28T04:41:38.863Z,87.51
2018-09-28T04:42:38.943Z,87.20
2018-09-28T04:43:38.843Z,86.99
2018-09-28T04:44:38.826Z,86.48
2018-09-28T04:46:57.070Z,87.98
2018-09-28T04:47:57.005Z,88.08
2018-09-28T04:48:56.979Z,88.80
2018-09-28T04:49:56.877Z,86.85
2018-09-28T04:50:56.895Z,86.65
2018-09-28T04:51:56.871Z,86.14
2018-09-28T04:52:56.863Z,87.67
2018-09-28T04:53:56.816Z,87.77
2018-09-28T04:54:57.897Z,86.96
2018-09-28T04:57:09.428Z,87.73
2018-09-28T04:58:09.399Z,87.77
2018-09-28T05:01:51.886Z,87.22
2018-09-28T05:02:51.266Z,86.10
2018-09-28T05:03:51.341Z,85.96
2018-09-28T05:04:52.427Z,85.85
2018-09-28T05:05:51.227Z,85.96
2018-09-28T05:06:51.330Z,86.26
2018-09-28T05:07:51.202Z,85.14
2018-09-28T05:08:51.202Z,86.05
2018-09-28T05:09:51.173Z,85.34
2018-09-28T05:10:51.154Z,84.93
2018-09-28T05:11:51.140Z,84.93
2018-09-28T05:12:51.144Z,85.44
2018-09-28T05:13:51.121Z,85.75
2018-09-28T05:14:51.130Z,84.48
2018-09-28T05:15:51.102Z,85.34
2018-09-28T05:16:51.089Z,84.28
2018-09-28T05:17:51.097Z,84.99
2018-09-28T05:18:51.075Z,84.79
2018-09-28T05:19:51.075Z,83.87
2018-09-28T05:20:51.082Z,83.97
2018-09-28T05:21:51.030Z,84.28
2018-09-28T05:22:51.035Z,84.38
2018-09-28T05:23:51.012Z,84.99
2018-09-28T05:24:51.005Z,84.69
2018-09-28T05:25:51.160Z,84.65
2018-09-28T05:26:51.079Z,85.10
2018-09-28T05:27:50.968Z,84.89
2018-09-28T05:28:50.961Z,85.40
2018-09-28T05:29:50.950Z,85.10
2018-09-28T05:30:53.973Z,85.16
2018-09-28T05:31:51.107Z,83.87
2018-09-28T05:32:51.108Z,83.87
2018-09-28T05:33:50.903Z,83.87
2018-09-28T05:34:50.915Z,83.66
2018-09-28T05:35:50.889Z,83.93
2018-09-28T05:36:50.897Z,83.83
2018-09-28T05:37:50.861Z,83.76
2018-09-28T05:38:50.854Z,83.46
2018-09-28T05:39:50.847Z,83.76
2018-09-28T05:40:50.854Z,84.07
2018-09-28T05:41:50.820Z,85.16
2018-09-28T05:42:50.803Z,83.73
2018-09-28T05:43:50.900Z,83.93
2018-09-28T05:44:50.798Z,84.55
2018-09-28T05:45:50.776Z,84.24
2018-09-28T05:46:50.784Z,84.24
2018-09-28T05:47:50.766Z,83.93
2018-09-28T05:48:50.739Z,84.75
2018-09-28T05:49:50.735Z,84.24
2018-09-28T05:50:50.732Z,84.20
2018-09-28T05:51:50.709Z,84.30
2018-09-28T05:52:50.726Z,84.24
2018-09-28T05:53:50.696Z,84.14
2018-09-28T05:54:50.685Z,84.34
2018-09-28T05:55:50.668Z,84.44
2018-09-28T05:56:50.650Z,84.03
2018-09-28T05:57:50.658Z,84.14
2018-09-28T05:58:59.566Z,83.69
2018-09-28T05:59:50.906Z,83.79
2018-09-28T06:00:59.388Z,84.55
2018-09-28T06:01:50.697Z,84.55
2018-09-28T06:02:50.782Z,84.71
2018-09-28T06:03:59.394Z,84.85
2018-09-28T06:04:50.740Z,85.26
2018-09-28T06:08:47.082Z,86.90
2018-09-28T06:09:45.983Z,86.04
2018-09-28T06:10:46.080Z,86.90
2018-09-28T06:11:58.834Z,86.18
2018-09-28T06:12:45.835Z,86.08
2018-09-28T06:13:46.062Z,86.49
2018-09-28T06:14:45.826Z,87.00
2018-09-28T06:15:45.801Z,87.26
2018-09-28T06:16:45.800Z,86.76
2018-09-28T06:17:45.831Z,87.57
2018-09-28T06:18:45.805Z,87.37
2018-09-28T06:19:45.800Z,87.20
2018-09-28T06:20:45.832Z,87.41
2018-09-28T06:21:45.811Z,87.67
2018-09-28T06:22:45.732Z,88.64
2018-09-28T06:23:45.719Z,88.12
2018-09-28T06:24:45.725Z,88.29
2018-09-28T06:25:45.730Z,88.79
2018-09-28T06:26:45.691Z,88.12
2018-09-28T06:27:45.710Z,88.33
2018-09-28T06:28:45.669Z,88.59
2018-09-28T06:29:45.684Z,89.00
2018-09-28T06:30:45.651Z,89.25
2018-09-28T06:31:45.642Z,89.11
2018-09-28T06:32:45.622Z,88.79
2018-09-28T06:33:45.651Z,89.56
2018-09-28T06:34:45.597Z,90.06
2018-09-28T06:35:45.640Z,89.92
2018-09-28T06:36:45.620Z,90.64
2018-09-28T06:37:45.612Z,90.43
2018-09-28T06:38:45.557Z,90.64
2018-09-28T06:39:45.573Z,90.84
2018-09-28T06:40:45.535Z,89.61
2018-09-28T06:41:45.561Z,89.11
2018-09-28T06:42:45.530Z,89.82
2018-09-28T06:43:45.494Z,90.33
2018-09-28T06:44:45.497Z,90.33
2018-09-28T06:45:45.480Z,90.33
2018-09-28T06:46:45.573Z,91.00
2018-09-28T06:47:45.518Z,90.53
2018-09-28T06:48:45.459Z,90.64
2018-09-28T06:49:45.432Z,91.15
2018-09-28T06:50:45.481Z,91.25
2018-09-28T06:51:45.410Z,90.59
2018-09-28T06:52:45.438Z,91.35
2018-09-28T06:53:45.479Z,90.70
2018-09-28T06:54:45.411Z,91.25
2018-09-28T06:55:45.369Z,90.39
2018-09-28T06:56:45.399Z,90.29
2018-09-28T06:57:45.352Z,90.90
2018-09-28T06:58:45.336Z,91.31
2018-09-28T06:59:45.392Z,91.72
2018-09-28T07:00:45.319Z,91.92
2018-09-28T07:01:45.302Z,91.52
2018-09-28T07:02:45.343Z,91.92
2018-09-28T07:03:45.293Z,91.67
2018-09-28T07:04:45.295Z,91.72
2018-09-28T07:05:45.349Z,92.13
2018-09-28T07:06:45.287Z,92.59
2018-09-28T07:07:45.262Z,92.29
2018-09-28T07:08:45.223Z,92.29
2018-09-28T07:09:45.218Z,91.78
2018-09-28T07:10:45.224Z,91.78
2018-09-28T07:11:45.235Z,92.59
2018-09-28T07:12:45.193Z,92.19
2018-09-28T07:13:45.214Z,91.98
2018-09-28T07:14:45.245Z,91.78
2018-09-28T07:15:45.250Z,91.63
2018-09-28T07:16:45.244Z,91.83
2018-09-28T07:17:45.138Z,91.22
2018-09-28T07:18:45.115Z,91.53
2018-09-28T07:19:45.102Z,91.63
2018-09-28T07:20:45.178Z,91.22
2018-09-28T07:21:45.082Z,91.74
2018-09-28T07:22:45.127Z,91.74
2018-09-28T07:23:45.147Z,91.33
2018-09-28T07:24:45.111Z,91.74
2018-09-28T07:25:45.054Z,90.77
2018-09-28T07:26:45.027Z,90.88
2018-09-28T07:27:45.046Z,90.71
2018-09-28T07:28:45.054Z,91.12
2018-09-28T07:29:45.105Z,91.08
2018-09-28T07:30:44.992Z,90.77
2018-09-28T07:31:44.998Z,90.77
2018-09-28T07:32:45.013Z,90.77
2018-09-28T07:33:44.966Z,91.18
2018-09-28T07:34:45.021Z,90.98
2018-09-28T07:35:44.983Z,91.08
2018-09-28T07:36:45.037Z,90.77
2018-09-28T07:37:44.924Z,90.26
2018-09-28T07:38:44.916Z,90.06
2018-09-28T07:39:44.885Z,90.47
2018-09-28T07:40:44.872Z,90.26
2018-09-28T07:41:44.960Z,90.57
2018-09-28T07:42:44.895Z,90.77
2018-09-28T07:43:44.860Z,90.53
2018-09-28T07:44:44.836Z,90.26
2018-09-28T07:45:44.820Z,90.42
2018-09-28T07:46:44.864Z,90.53
2018-09-28T07:47:44.870Z,89.61
2018-09-28T07:48:44.794Z,89.71
2018-09-28T07:49:44.777Z,89.61
2018-09-28T07:50:44.833Z,89.40
2018-09-28T07:51:44.825Z,89.10
2018-09-28T07:52:44.777Z,88.28
2018-09-28T07:53:44.739Z,89.20
2018-09-28T07:54:44.730Z,88.90
2018-09-28T07:55:44.753Z,88.69
2018-09-28T07:56:44.699Z,89.30
2018-09-28T07:57:44.710Z,88.79
2018-09-28T07:58:44.827Z,87.57
2018-09-28T07:59:44.654Z,88.49
2018-09-28T08:00:44.650Z,88.45
2018-09-28T08:01:44.699Z,88.59
2018-09-28T08:02:44.632Z,88.28
2018-09-28T08:03:44.625Z,88.49
2018-09-28T08:04:44.614Z,89.10
2018-09-28T08:05:44.601Z,88.39
2018-09-28T08:06:44.582Z,88.24
2018-09-28T08:07:44.573Z,88.69
2018-09-28T08:08:44.598Z,87.57
2018-09-28T08:09:44.577Z,87.77
2018-09-28T08:10:44.551Z,88.39
2018-09-28T08:11:44.526Z,87.26
2018-09-28T08:12:44.510Z,87.77
2018-09-28T08:13:44.516Z,87.98
2018-09-28T08:14:44.516Z,87.88
2018-09-28T08:15:44.486Z,87.57
2018-09-28T08:16:44.482Z,87.57
2018-09-28T08:17:44.527Z,88.59
2018-09-28T08:18:44.451Z,87.77
2018-09-28T08:19:44.483Z,87.47
2018-09-28T08:20:44.441Z,87.47
2018-09-28T08:21:44.476Z,87.26
2018-09-28T08:22:44.414Z,87.47
2018-09-28T08:23:44.425Z,87.26
2018-09-28T08:24:44.489Z,87.37
2018-09-28T08:25:44.421Z,87.37
2018-09-28T08:26:44.363Z,87.77
2018-09-28T08:27:44.365Z,88.39
2018-09-28T08:28:44.334Z,88.39
2018-09-28T08:29:44.372Z,88.49
2018-09-28T08:30:44.379Z,88.65
2018-09-28T08:31:44.323Z,88.39
2018-09-28T08:32:44.315Z,87.57
2018-09-28T08:33:44.292Z,87.98
2018-09-28T08:34:44.282Z,88.55
2018-09-28T08:35:44.298Z,88.69
2018-09-28T08:36:44.370Z,88.28
2018-09-28T08:37:44.272Z,88.49
2018-09-28T08:38:44.247Z,88.90
2018-09-28T08:39:44.744Z,88.24
2018-09-28T08:40:44.211Z,88.39
2018-09-28T08:41:44.269Z,87.43
2018-09-28T08:42:44.185Z,87.73
2018-09-28T08:43:44.248Z,87.63
2018-09-28T08:44:44.162Z,87.37
2018-09-28T08:45:44.166Z,87.53
2018-09-28T08:46:44.158Z,87.23
2018-09-28T08:47:44.130Z,87.84
2018-09-28T08:48:44.150Z,87.02
2018-09-28T08:49:44.131Z,87.02
2018-09-28T08:50:44.096Z,87.23
2018-09-28T08:51:44.097Z,87.63
2018-09-28T08:52:44.078Z,88.34
2018-09-28T08:53:44.098Z,87.59
2018-09-28T08:54:44.087Z,86.61
2018-09-28T08:55:44.080Z,86.82
2018-09-28T08:56:44.030Z,87.23
2018-09-28T08:57:44.025Z,86.47
2018-09-28T08:58:44.019Z,87.02
2018-09-28T08:59:44.042Z,86.68
2018-09-28T09:00:44.007Z,86.77
2018-09-28T09:01:43.977Z,85.90
2018-09-28T09:02:43.994Z,85.49
2018-09-28T09:03:43.959Z,86.51
2018-09-28T09:04:43.959Z,86.00
2018-09-28T09:05:43.964Z,85.60
2018-09-28T09:06:43.926Z,86.71
2018-09-28T09:07:43.941Z,86.82
2018-09-28T09:08:43.897Z,85.69
2018-09-28T09:09:43.960Z,86.77
2018-09-28T09:10:43.897Z,84.84
2018-09-28T09:11:43.872Z,85.14
2018-09-28T09:12:43.880Z,84.64
2018-09-28T09:13:43.857Z,84.64
2018-09-28T09:14:43.845Z,84.53
2018-09-28T09:15:43.842Z,85.55
2018-09-28T09:16:43.814Z,84.94
2018-09-28T09:17:43.824Z,83.51
2018-09-28T09:18:43.838Z,83.31
2018-09-28T09:19:43.826Z,83.92
2018-09-28T09:20:43.785Z,83.62
2018-09-28T09:21:43.765Z,83.82
2018-09-28T09:22:43.764Z,84.03
2018-09-28T09:23:43.796Z,84.33
2018-09-28T09:24:43.723Z,83.72
2018-09-28T09:25:43.714Z,84.74
2018-09-28T09:26:43.724Z,83.92
2018-09-28T09:27:43.733Z,83.21
2018-09-28T09:28:43.680Z,83.42
2018-09-28T09:29:43.665Z,83.21
2018-09-28T09:30:43.657Z,83.31
2018-09-28T09:31:43.651Z,83.31
2018-09-28T09:32:43.631Z,83.51
2018-09-28T09:33:43.637Z,83.92
2018-09-28T09:34:43.670Z,82.90
2018-09-28T09:35:43.610Z,82.60
2018-09-28T09:36:43.595Z,84.74
2018-09-28T09:37:43.580Z,82.60
2018-09-28T09:38:43.596Z,83.21
2018-09-28T09:39:43.558Z,83.72
2018-09-28T09:40:43.590Z,82.29
2018-09-28T09:41:43.544Z,81.58
2018-09-28T09:42:43.592Z,81.68
2018-09-28T09:43:43.510Z,81.68
2018-09-28T09:44:43.515Z,81.38
2018-09-28T09:45:43.492Z,82.60
2018-09-28T09:46:43.504Z,81.48
2018-09-28T09:47:43.478Z,81.27
2018-09-28T09:48:43.499Z,81.27
2018-09-28T09:49:43.445Z,81.27
2018-09-28T09:50:43.444Z,81.58
2018-09-28T09:51:43.429Z,81.79
2018-09-28T09:52:43.460Z,81.04
2018-09-28T09:53:43.402Z,81.74
2018-09-28T09:54:43.435Z,80.32
2018-09-28T09:55:43.392Z,79.91
2018-09-28T09:56:43.370Z,80.73
2018-09-28T09:57:43.422Z,79.41
2018-09-28T09:58:43.370Z,79.71
2018-09-28T09:59:43.346Z,79.61
2018-09-28T10:00:43.329Z,79.71
2018-09-28T10:01:43.335Z,79.10
2018-09-28T10:02:43.302Z,79.71
2018-09-28T10:03:43.368Z,78.69
2018-09-28T10:04:43.288Z,78.86
2018-09-28T10:05:43.284Z,78.69
2018-09-28T10:06:43.266Z,79.20
2018-09-28T10:07:43.274Z,78.66
2018-09-28T10:08:43.266Z,78.08
2018-09-28T10:09:43.300Z,78.86
2018-09-28T10:10:43.222Z,77.64
2018-09-28T10:11:43.208Z,77.84
2018-09-28T10:12:43.248Z,77.13
2018-09-28T10:13:43.205Z,77.13
2018-09-28T10:14:43.189Z,77.13
2018-09-28T10:15:43.168Z,77.53
2018-09-28T10:16:43.152Z,77.33
2018-09-28T10:17:43.163Z,76.38
2018-09-28T10:18:43.129Z,77.20
2018-09-28T10:19:43.204Z,77.29
2018-09-28T10:20:43.143Z,76.42
2018-09-28T10:21:43.106Z,77.20
2018-09-28T10:22:43.091Z,76.99
2018-09-28T10:23:43.097Z,75.37
2018-09-28T10:24:43.078Z,75.40
2018-09-28T10:25:43.060Z,75.77
2018-09-28T10:26:43.043Z,74.76
2018-09-28T10:27:43.065Z,75.06
2018-09-28T10:28:43.142Z,74.45
2018-09-28T10:29:43.023Z,74.55
2018-09-28T10:30:43.050Z,74.15
2018-09-28T10:31:42.992Z,74.15
2018-09-28T10:32:42.976Z,74.24
2018-09-28T10:33:43.034Z,73.43
2018-09-28T10:34:43.056Z,73.63
2018-09-28T10:35:42.941Z,74.96
2018-09-28T10:36:42.939Z,73.60
2018-09-28T10:37:42.934Z,72.48
2018-09-28T10:38:42.929Z,73.50
2018-09-28T10:39:42.999Z,72.58
2018-09-28T10:40:43.042Z,69.64
2018-09-28T10:41:42.890Z,70.86
2018-09-28T10:42:42.864Z,68.72
2018-09-28T10:43:42.853Z,69.09
2018-09-28T10:44:42.913Z,68.21
2018-09-28T10:45:42.888Z,67.67
2018-09-28T10:46:42.889Z,67.57
2018-09-28T10:47:42.806Z,68.62
2018-09-28T10:48:43.058Z,65.33
2018-09-28T10:49:42.799Z,65.84
2018-09-28T10:50:42.789Z,65.44
2018-09-28T10:51:42.838Z,65.94
2018-09-28T10:52:42.829Z,64.70
2018-09-28T10:53:42.739Z,66.02
2018-09-28T10:54:42.753Z,63.98
2018-09-28T10:55:42.770Z,65.00
2018-09-28T10:56:42.716Z,65.61
2018-09-28T10:57:42.699Z,63.28
2018-09-28T10:58:42.768Z,64.39
2018-09-28T10:59:42.718Z,63.55
2018-09-28T11:00:42.681Z,64.06
2018-09-28T11:01:42.662Z,62.53
2018-09-28T11:02:42.640Z,65.48
2018-09-28T11:03:43.109Z,63.75
2018-09-28T11:04:42.684Z,62.74
2018-09-28T11:05:42.847Z,61.93
2018-09-28T11:06:42.630Z,62.43
2018-09-28T11:07:42.631Z,63.45
2018-09-28T11:08:42.878Z,61.72
2018-09-28T11:09:42.669Z,61.99
2018-09-28T11:10:42.792Z,61.72
2018-09-28T11:11:42.553Z,62.40
2018-09-28T11:12:43.257Z,61.69
2018-09-28T11:13:43.261Z,61.90
2018-09-28T11:14:42.885Z,62.71
2018-09-28T11:15:43.328Z,62.91
2018-09-28T11:16:42.654Z,63.21
2018-09-28T11:17:42.679Z,65.14
2018-09-28T11:18:42.495Z,62.37
2018-09-28T11:19:42.591Z,60.44
2018-09-28T11:20:43.293Z,61.05
2018-09-28T11:21:42.531Z,61.36
2018-09-28T11:22:42.441Z,62.68
2018-09-28T11:23:42.417Z,62.37
2018-09-28T11:24:42.443Z,62.07
2018-09-28T11:25:42.511Z,60.52
2018-09-28T11:26:42.421Z,61.33
2018-09-28T11:27:42.506Z,60.11
2018-09-28T11:28:42.368Z,60.42
2018-09-28T11:29:42.358Z,59.41
2018-09-28T11:30:51.647Z,60.52
2018-09-28T11:31:42.966Z,59.53
2018-09-28T11:41:37.957Z,60.69
2018-09-28T11:47:06.761Z,60.59
2018-09-28T11:50:02.920Z,61.68
2018-09-28T11:51:11.531Z,61.88
2018-09-28T11:52:02.632Z,60.26
2018-09-28T11:53:02.577Z,62.49
2018-09-28T11:54:02.653Z,64.07
2018-09-28T11:55:02.502Z,62.05
2018-09-28T11:56:02.468Z,59.70
2018-09-28T11:57:02.490Z,59.29
2018-09-28T11:58:02.441Z,59.49
2018-09-28T11:59:02.484Z,57.95
2018-09-28T12:00:02.659Z,57.44
2018-09-28T12:01:02.514Z,57.44
2018-09-28T12:02:02.435Z,57.04
2018-09-28T12:03:02.397Z,56.96
2018-09-28T12:04:02.400Z,58.36
2018-09-28T12:29:22.742Z,55.47
2018-09-28T12:40:24.955Z,52.21
2018-09-28T12:44:36.412Z,54.33
2018-09-28T12:47:29.400Z,53.52
2018-09-28T12:48:28.316Z,53.22
2018-09-28T12:49:26.991Z,53.83
2018-09-28T12:50:26.802Z,53.12
2018-09-28T12:55:05.084Z,52.67
2018-09-28T12:56:04.688Z,52.36
2018-09-28T12:57:04.629Z,52.76
2018-09-28T12:58:04.716Z,53.38
2018-09-28T12:59:04.595Z,53.88
2018-09-28T13:00:05.529Z,53.30
2018-09-28T13:05:13.687Z,54.21
2018-09-28T13:06:13.563Z,54.11
2018-09-28T13:07:13.726Z,53.80
2018-09-28T13:09:29.915Z,55.02
2018-09-28T13:10:29.990Z,56.26
2018-09-28T13:11:45.408Z,54.41
2018-09-28T13:12:30.018Z,54.31
2018-09-28T13:13:29.999Z,53.50
2018-09-28T13:14:30.028Z,52.69
2018-09-28T13:15:32.600Z,53.50
2018-09-28T13:16:29.856Z,52.69
2018-09-28T13:17:31.446Z,51.17
2018-09-28T13:18:29.933Z,52.06
2018-09-28T13:19:29.872Z,51.76
2018-09-28T13:20:29.867Z,51.32
2018-09-28T13:21:29.831Z,51.43
2018-09-28T13:22:29.757Z,51.61
2018-09-28T13:23:30.445Z,51.38
2018-09-28T13:24:29.773Z,51.38
2018-09-28T13:25:29.719Z,47.72
2018-09-28T13:26:29.853Z,46.79
2018-09-28T13:27:29.717Z,46.19
2018-09-28T13:28:29.708Z,46.19
2018-09-28T13:29:30.025Z,44.57
2018-09-28T13:30:29.805Z,45.07
2018-09-28T13:31:29.857Z,45.76
2018-09-28T13:32:29.762Z,46.06
2018-09-28T13:33:30.439Z,45.56
2018-09-28T13:34:29.701Z,45.54
2018-09-28T13:35:29.615Z,45.54
2018-09-28T13:36:30.609Z,43.52
2018-09-28T13:37:29.598Z,43.71
2018-09-28T13:38:29.763Z,44.31
2018-09-28T13:39:29.843Z,42.40
2018-09-28T13:40:29.578Z,42.38
2018-09-28T13:41:29.592Z,41.67
2018-09-28T13:42:29.567Z,42.30
2018-09-28T13:43:29.611Z,40.48
2018-09-28T13:46:36.329Z,40.06
2018-09-28T13:51:34.818Z,41.33
2018-09-28T14:05:03.081Z,43.68
2018-09-28T14:06:02.796Z,41.97
2018-09-28T14:07:02.511Z,41.87
2018-09-28T14:08:02.443Z,41.09
2018-09-28T14:09:02.321Z,42.49
2018-09-28T14:10:13.943Z,42.19
2018-09-28T14:11:03.178Z,41.41
2018-09-28T14:17:02.014Z,43.80
2018-09-28T14:19:52.594Z,43.82
2018-09-28T14:20:52.187Z,45.12
2018-09-28T14:21:52.221Z,44.21
2018-09-28T14:29:01.349Z,47.02
2018-09-28T14:36:53.929Z,46.70
2018-09-28T14:57:25.885Z,46.15
2018-09-28T14:59:35.616Z,47.16
2018-09-28T15:00:35.488Z,47.47
2018-09-28T15:17:45.158Z,48.74
2018-09-28T15:18:44.670Z,46.95
2018-09-28T15:19:44.664Z,47.96